sensor_id;sensor_type;location;lat;lon;timestamp;P1;durP1;ratioP1;P2;durP2;ratioP2
34353;SDS011;20618;0.000;0.000;2024-01-30T00:02:09;11.82;;;3.92;;
34353;SDS011;20618;0.000;0.000;2024-01-30T00:04:36;13.55;;;4.05;;
34353;SDS011;20618;0.000;0.000;2024-01-30T00:07:02;10.02;;;3.55;;
34353;SDS011;20618;0.000;0.000;2024-01-30T00:09:28;13.20;;;3.33;;
34353;SDS011;20618;0.000;0.000;2024-01-30T00:11:54;9.93;;;3.72;;
34353;SDS011;20618;0.000;0.000;2024-01-30T00:14:21;10.88;;;3.78;;
34353;SDS011;20618;0.000;0.000;2024-01-30T00:16:48;12.68;;;4.07;;
34353;SDS011;20618;0.000;0.000;2024-01-30T00:19:14;9.80;;;3.33;;
34353;SDS011;20618;0.000;0.000;2024-01-30T00:21:40;12.48;;;3.60;;
34353;SDS011;20618;0.000;0.000;2024-01-30T00:24:06;11.15;;;3.60;;
34353;SDS011;20618;0.000;0.000;2024-01-30T00:26:33;9.55;;;3.63;;
34353;SDS011;20618;0.000;0.000;2024-01-30T00:28:59;8.70;;;3.58;;
34353;SDS011;20618;0.000;0.000;2024-01-30T00:31:25;9.38;;;3.60;;
34353;SDS011;20618;0.000;0.000;2024-01-30T00:33:52;10.52;;;3.47;;
34353;SDS011;20618;0.000;0.000;2024-01-30T00:36:18;11.02;;;3.45;;
34353;SDS011;20618;0.000;0.000;2024-01-30T00:38:44;8.30;;;3.50;;
34353;SDS011;20618;0.000;0.000;2024-01-30T00:41:10;10.20;;;3.58;;
34353;SDS011;20618;0.000;0.000;2024-01-30T00:43:36;8.65;;;3.53;;
34353;SDS011;20618;0.000;0.000;2024-01-30T00:46:03;11.10;;;3.92;;
34353;SDS011;20618;0.000;0.000;2024-01-30T00:48:29;12.10;;;3.08;;
34353;SDS011;20618;0.000;0.000;2024-01-30T00:50:55;9.20;;;3.88;;
34353;SDS011;20618;0.000;0.000;2024-01-30T00:53:21;13.27;;;3.40;;
34353;SDS011;20618;0.000;0.000;2024-01-30T00:55:47;11.10;;;3.60;;
34353;SDS011;20618;0.000;0.000;2024-01-30T00:58:14;10.45;;;3.53;;
34353;SDS011;20618;0.000;0.000;2024-01-30T01:00:40;9.13;;;3.40;;
34353;SDS011;20618;0.000;0.000;2024-01-30T01:03:06;13.98;;;3.70;;
34353;SDS011;20618;0.000;0.000;2024-01-30T01:05:32;9.23;;;3.47;;
34353;SDS011;20618;0.000;0.000;2024-01-30T01:07:58;11.15;;;3.13;;
34353;SDS011;20618;0.000;0.000;2024-01-30T01:10:25;8.23;;;3.33;;
34353;SDS011;20618;0.000;0.000;2024-01-30T01:12:52;7.13;;;3.30;;
34353;SDS011;20618;0.000;0.000;2024-01-30T01:15:18;8.52;;;3.50;;
34353;SDS011;20618;0.000;0.000;2024-01-30T01:17:45;10.45;;;3.53;;
34353;SDS011;20618;0.000;0.000;2024-01-30T01:20:11;8.85;;;3.45;;
34353;SDS011;20618;0.000;0.000;2024-01-30T01:22:37;9.98;;;3.50;;
34353;SDS011;20618;0.000;0.000;2024-01-30T01:25:04;9.23;;;3.85;;
34353;SDS011;20618;0.000;0.000;2024-01-30T01:27:33;10.27;;;3.30;;
34353;SDS011;20618;0.000;0.000;2024-01-30T01:30:05;13.32;;;3.63;;
34353;SDS011;20618;0.000;0.000;2024-01-30T01:32:34;10.55;;;3.58;;
34353;SDS011;20618;0.000;0.000;2024-01-30T01:35:00;7.85;;;3.45;;
34353;SDS011;20618;0.000;0.000;2024-01-30T01:37:27;10.00;;;3.95;;
34353;SDS011;20618;0.000;0.000;2024-01-30T01:39:53;8.98;;;3.72;;
34353;SDS011;20618;0.000;0.000;2024-01-30T01:42:19;9.95;;;3.60;;
34353;SDS011;20618;0.000;0.000;2024-01-30T01:44:45;7.82;;;3.60;;
34353;SDS011;20618;0.000;0.000;2024-01-30T01:47:11;8.98;;;3.20;;
34353;SDS011;20618;0.000;0.000;2024-01-30T01:49:38;10.77;;;3.47;;
34353;SDS011;20618;0.000;0.000;2024-01-30T01:52:04;9.25;;;3.70;;
34353;SDS011;20618;0.000;0.000;2024-01-30T01:54:30;8.27;;;3.42;;
34353;SDS011;20618;0.000;0.000;2024-01-30T01:56:56;8.40;;;3.65;;
34353;SDS011;20618;0.000;0.000;2024-01-30T01:59:23;9.18;;;3.85;;
34353;SDS011;20618;0.000;0.000;2024-01-30T02:01:49;9.65;;;3.67;;
34353;SDS011;20618;0.000;0.000;2024-01-30T02:04:16;10.20;;;2.90;;
34353;SDS011;20618;0.000;0.000;2024-01-30T02:06:43;9.68;;;3.00;;
34353;SDS011;20618;0.000;0.000;2024-01-30T02:09:09;7.85;;;3.53;;
34353;SDS011;20618;0.000;0.000;2024-01-30T02:11:35;8.80;;;3.38;;
34353;SDS011;20618;0.000;0.000;2024-01-30T02:14:02;12.18;;;3.47;;
34353;SDS011;20618;0.000;0.000;2024-01-30T02:16:29;7.20;;;3.65;;
34353;SDS011;20618;0.000;0.000;2024-01-30T02:18:55;6.63;;;2.95;;
34353;SDS011;20618;0.000;0.000;2024-01-30T02:21:21;10.30;;;3.38;;
34353;SDS011;20618;0.000;0.000;2024-01-30T02:23:47;9.27;;;3.63;;
34353;SDS011;20618;0.000;0.000;2024-01-30T02:26:15;10.55;;;3.35;;
34353;SDS011;20618;0.000;0.000;2024-01-30T02:28:41;8.00;;;3.50;;
34353;SDS011;20618;0.000;0.000;2024-01-30T02:31:07;7.53;;;3.33;;
34353;SDS011;20618;0.000;0.000;2024-01-30T02:33:33;7.38;;;3.03;;
34353;SDS011;20618;0.000;0.000;2024-01-30T02:35:59;7.97;;;3.50;;
34353;SDS011;20618;0.000;0.000;2024-01-30T02:38:26;10.18;;;3.38;;
34353;SDS011;20618;0.000;0.000;2024-01-30T02:40:52;7.03;;;3.33;;
34353;SDS011;20618;0.000;0.000;2024-01-30T02:43:18;8.23;;;3.40;;
34353;SDS011;20618;0.000;0.000;2024-01-30T02:45:45;9.75;;;3.50;;
34353;SDS011;20618;0.000;0.000;2024-01-30T02:48:11;9.35;;;3.33;;
34353;SDS011;20618;0.000;0.000;2024-01-30T02:50:37;10.10;;;3.50;;
34353;SDS011;20618;0.000;0.000;2024-01-30T02:53:03;6.65;;;3.10;;
34353;SDS011;20618;0.000;0.000;2024-01-30T02:55:29;8.05;;;2.95;;
34353;SDS011;20618;0.000;0.000;2024-01-30T02:57:55;8.07;;;3.47;;
34353;SDS011;20618;0.000;0.000;2024-01-30T03:00:21;10.27;;;3.55;;
34353;SDS011;20618;0.000;0.000;2024-01-30T03:02:48;12.05;;;3.85;;
34353;SDS011;20618;0.000;0.000;2024-01-30T03:05:14;8.32;;;3.47;;
34353;SDS011;20618;0.000;0.000;2024-01-30T03:07:40;8.65;;;3.67;;
34353;SDS011;20618;0.000;0.000;2024-01-30T03:10:06;10.05;;;3.30;;
34353;SDS011;20618;0.000;0.000;2024-01-30T03:12:33;8.70;;;3.40;;
34353;SDS011;20618;0.000;0.000;2024-01-30T03:14:59;6.25;;;2.90;;
34353;SDS011;20618;0.000;0.000;2024-01-30T03:17:25;6.88;;;3.25;;
34353;SDS011;20618;0.000;0.000;2024-01-30T03:19:51;7.97;;;3.47;;
34353;SDS011;20618;0.000;0.000;2024-01-30T03:22:18;8.35;;;3.58;;
34353;SDS011;20618;0.000;0.000;2024-01-30T03:24:44;7.82;;;3.22;;
34353;SDS011;20618;0.000;0.000;2024-01-30T03:27:10;7.75;;;3.38;;
34353;SDS011;20618;0.000;0.000;2024-01-30T03:29:36;8.23;;;3.70;;
34353;SDS011;20618;0.000;0.000;2024-01-30T03:32:03;7.85;;;3.17;;
34353;SDS011;20618;0.000;0.000;2024-01-30T03:34:29;7.60;;;3.70;;
34353;SDS011;20618;0.000;0.000;2024-01-30T03:36:55;7.28;;;3.60;;
34353;SDS011;20618;0.000;0.000;2024-01-30T03:39:22;9.13;;;3.13;;
34353;SDS011;20618;0.000;0.000;2024-01-30T03:41:48;6.15;;;2.95;;
34353;SDS011;20618;0.000;0.000;2024-01-30T03:44:14;8.75;;;3.25;;
34353;SDS011;20618;0.000;0.000;2024-01-30T03:46:41;7.18;;;3.38;;
34353;SDS011;20618;0.000;0.000;2024-01-30T03:49:07;6.63;;;3.08;;
34353;SDS011;20618;0.000;0.000;2024-01-30T03:51:33;6.28;;;2.85;;
34353;SDS011;20618;0.000;0.000;2024-01-30T03:53:59;7.45;;;3.33;;
34353;SDS011;20618;0.000;0.000;2024-01-30T03:56:25;7.03;;;3.33;;
34353;SDS011;20618;0.000;0.000;2024-01-30T03:58:52;8.18;;;3.05;;
34353;SDS011;20618;0.000;0.000;2024-01-30T04:01:18;7.22;;;3.05;;
34353;SDS011;20618;0.000;0.000;2024-01-30T04:03:44;8.57;;;3.78;;
34353;SDS011;20618;0.000;0.000;2024-01-30T04:06:11;8.82;;;3.45;;
34353;SDS011;20618;0.000;0.000;2024-01-30T04:08:38;10.95;;;3.13;;
34353;SDS011;20618;0.000;0.000;2024-01-30T04:11:04;6.35;;;2.83;;
34353;SDS011;20618;0.000;0.000;2024-01-30T04:13:31;8.52;;;3.58;;
34353;SDS011;20618;0.000;0.000;2024-01-30T04:15:58;8.23;;;3.42;;
34353;SDS011;20618;0.000;0.000;2024-01-30T04:18:26;8.45;;;3.28;;
34353;SDS011;20618;0.000;0.000;2024-01-30T04:20:53;6.50;;;3.38;;
34353;SDS011;20618;0.000;0.000;2024-01-30T04:23:19;9.82;;;3.85;;
34353;SDS011;20618;0.000;0.000;2024-01-30T04:25:45;7.72;;;3.47;;
34353;SDS011;20618;0.000;0.000;2024-01-30T04:28:11;6.07;;;3.03;;
34353;SDS011;20618;0.000;0.000;2024-01-30T04:30:38;7.60;;;3.38;;
34353;SDS011;20618;0.000;0.000;2024-01-30T04:33:04;9.10;;;3.55;;
34353;SDS011;20618;0.000;0.000;2024-01-30T04:35:30;7.72;;;3.22;;
34353;SDS011;20618;0.000;0.000;2024-01-30T04:37:56;8.57;;;3.20;;
34353;SDS011;20618;0.000;0.000;2024-01-30T04:40:23;7.50;;;3.33;;
34353;SDS011;20618;0.000;0.000;2024-01-30T04:42:49;9.27;;;3.65;;
34353;SDS011;20618;0.000;0.000;2024-01-30T04:45:15;7.50;;;3.65;;
34353;SDS011;20618;0.000;0.000;2024-01-30T04:47:41;7.28;;;3.30;;
34353;SDS011;20618;0.000;0.000;2024-01-30T04:50:08;7.55;;;3.42;;
34353;SDS011;20618;0.000;0.000;2024-01-30T04:52:34;8.80;;;3.45;;
34353;SDS011;20618;0.000;0.000;2024-01-30T04:55:01;5.82;;;3.25;;
34353;SDS011;20618;0.000;0.000;2024-01-30T04:57:27;8.13;;;3.47;;
34353;SDS011;20618;0.000;0.000;2024-01-30T04:59:53;8.27;;;3.53;;
34353;SDS011;20618;0.000;0.000;2024-01-30T05:02:19;6.28;;;3.10;;
34353;SDS011;20618;0.000;0.000;2024-01-30T05:04:46;6.50;;;3.50;;
34353;SDS011;20618;0.000;0.000;2024-01-30T05:07:12;7.57;;;3.47;;
34353;SDS011;20618;0.000;0.000;2024-01-30T05:09:38;6.78;;;3.10;;
34353;SDS011;20618;0.000;0.000;2024-01-30T05:12:04;6.35;;;3.30;;
34353;SDS011;20618;0.000;0.000;2024-01-30T05:14:30;9.25;;;3.78;;
34353;SDS011;20618;0.000;0.000;2024-01-30T05:16:57;7.55;;;2.92;;
34353;SDS011;20618;0.000;0.000;2024-01-30T05:19:23;7.82;;;3.10;;
34353;SDS011;20618;0.000;0.000;2024-01-30T05:21:49;7.07;;;3.45;;
34353;SDS011;20618;0.000;0.000;2024-01-30T05:24:15;7.30;;;3.03;;
34353;SDS011;20618;0.000;0.000;2024-01-30T05:26:42;8.50;;;3.20;;
34353;SDS011;20618;0.000;0.000;2024-01-30T05:29:08;8.75;;;3.50;;
34353;SDS011;20618;0.000;0.000;2024-01-30T05:31:34;7.20;;;3.42;;
34353;SDS011;20618;0.000;0.000;2024-01-30T05:34:00;10.27;;;3.92;;
34353;SDS011;20618;0.000;0.000;2024-01-30T05:36:26;8.18;;;2.85;;
34353;SDS011;20618;0.000;0.000;2024-01-30T05:38:53;7.32;;;3.47;;
34353;SDS011;20618;0.000;0.000;2024-01-30T05:41:19;9.15;;;3.55;;
34353;SDS011;20618;0.000;0.000;2024-01-30T05:43:48;7.27;;;3.20;;
34353;SDS011;20618;0.000;0.000;2024-01-30T05:46:15;7.63;;;3.70;;
34353;SDS011;20618;0.000;0.000;2024-01-30T05:48:41;6.65;;;3.60;;
34353;SDS011;20618;0.000;0.000;2024-01-30T05:51:07;9.60;;;3.70;;
34353;SDS011;20618;0.000;0.000;2024-01-30T05:53:34;5.50;;;2.97;;
34353;SDS011;20618;0.000;0.000;2024-01-30T05:56:03;7.65;;;3.28;;
34353;SDS011;20618;0.000;0.000;2024-01-30T05:58:29;9.07;;;3.17;;
34353;SDS011;20618;0.000;0.000;2024-01-30T06:00:58;8.18;;;3.53;;
34353;SDS011;20618;0.000;0.000;2024-01-30T06:03:25;7.53;;;3.55;;
34353;SDS011;20618;0.000;0.000;2024-01-30T06:05:51;6.93;;;3.10;;
34353;SDS011;20618;0.000;0.000;2024-01-30T06:08:17;8.77;;;3.60;;
34353;SDS011;20618;0.000;0.000;2024-01-30T06:10:43;8.10;;;3.30;;
34353;SDS011;20618;0.000;0.000;2024-01-30T06:13:09;7.53;;;3.55;;
34353;SDS011;20618;0.000;0.000;2024-01-30T06:15:36;9.23;;;2.90;;
34353;SDS011;20618;0.000;0.000;2024-01-30T06:18:02;5.40;;;3.13;;
34353;SDS011;20618;0.000;0.000;2024-01-30T06:20:28;6.32;;;3.20;;
34353;SDS011;20618;0.000;0.000;2024-01-30T06:22:54;7.32;;;2.88;;
34353;SDS011;20618;0.000;0.000;2024-01-30T06:25:20;5.55;;;2.90;;
34353;SDS011;20618;0.000;0.000;2024-01-30T06:27:46;6.10;;;3.17;;
34353;SDS011;20618;0.000;0.000;2024-01-30T06:30:13;8.70;;;3.60;;
34353;SDS011;20618;0.000;0.000;2024-01-30T06:32:39;7.82;;;3.17;;
34353;SDS011;20618;0.000;0.000;2024-01-30T06:35:05;7.68;;;3.03;;
34353;SDS011;20618;0.000;0.000;2024-01-30T06:37:32;6.80;;;2.90;;
34353;SDS011;20618;0.000;0.000;2024-01-30T06:39:58;7.25;;;2.88;;
34353;SDS011;20618;0.000;0.000;2024-01-30T06:42:24;8.38;;;3.35;;
34353;SDS011;20618;0.000;0.000;2024-01-30T06:44:50;7.55;;;2.72;;
34353;SDS011;20618;0.000;0.000;2024-01-30T06:47:16;7.20;;;3.42;;
34353;SDS011;20618;0.000;0.000;2024-01-30T06:49:43;6.63;;;3.42;;
34353;SDS011;20618;0.000;0.000;2024-01-30T06:52:10;5.85;;;3.00;;
34353;SDS011;20618;0.000;0.000;2024-01-30T06:54:36;5.60;;;2.58;;
34353;SDS011;20618;0.000;0.000;2024-01-30T06:57:02;7.28;;;3.35;;
34353;SDS011;20618;0.000;0.000;2024-01-30T06:59:29;7.13;;;3.40;;
34353;SDS011;20618;0.000;0.000;2024-01-30T07:01:55;7.65;;;3.22;;
34353;SDS011;20618;0.000;0.000;2024-01-30T07:04:21;5.57;;;3.15;;
34353;SDS011;20618;0.000;0.000;2024-01-30T07:06:47;6.75;;;2.85;;
34353;SDS011;20618;0.000;0.000;2024-01-30T07:09:13;5.72;;;3.35;;
34353;SDS011;20618;0.000;0.000;2024-01-30T07:11:40;8.60;;;2.92;;
34353;SDS011;20618;0.000;0.000;2024-01-30T07:14:06;5.25;;;2.75;;
34353;SDS011;20618;0.000;0.000;2024-01-30T07:16:32;7.72;;;3.40;;
34353;SDS011;20618;0.000;0.000;2024-01-30T07:18:58;6.53;;;2.90;;
34353;SDS011;20618;0.000;0.000;2024-01-30T07:21:24;6.32;;;2.95;;
34353;SDS011;20618;0.000;0.000;2024-01-30T07:23:56;7.35;;;3.42;;
34353;SDS011;20618;0.000;0.000;2024-01-30T07:26:22;8.50;;;3.40;;
34353;SDS011;20618;0.000;0.000;2024-01-30T07:28:49;8.48;;;3.05;;
34353;SDS011;20618;0.000;0.000;2024-01-30T07:31:15;9.90;;;3.10;;
34353;SDS011;20618;0.000;0.000;2024-01-30T07:33:41;8.50;;;3.17;;
34353;SDS011;20618;0.000;0.000;2024-01-30T07:36:08;5.97;;;2.78;;
34353;SDS011;20618;0.000;0.000;2024-01-30T07:38:35;8.38;;;2.88;;
34353;SDS011;20618;0.000;0.000;2024-01-30T07:41:01;9.30;;;3.47;;
34353;SDS011;20618;0.000;0.000;2024-01-30T07:43:27;9.23;;;3.13;;
34353;SDS011;20618;0.000;0.000;2024-01-30T07:45:54;9.77;;;3.83;;
34353;SDS011;20618;0.000;0.000;2024-01-30T07:48:20;9.90;;;3.50;;
34353;SDS011;20618;0.000;0.000;2024-01-30T07:50:46;7.90;;;3.00;;
34353;SDS011;20618;0.000;0.000;2024-01-30T07:53:13;8.63;;;3.40;;
34353;SDS011;20618;0.000;0.000;2024-01-30T07:55:39;10.18;;;3.28;;
34353;SDS011;20618;0.000;0.000;2024-01-30T07:58:05;11.40;;;3.17;;
34353;SDS011;20618;0.000;0.000;2024-01-30T08:00:31;12.15;;;3.50;;
34353;SDS011;20618;0.000;0.000;2024-01-30T08:02:57;9.57;;;3.25;;
34353;SDS011;20618;0.000;0.000;2024-01-30T08:05:24;10.13;;;4.10;;
34353;SDS011;20618;0.000;0.000;2024-01-30T08:07:50;11.43;;;3.55;;
34353;SDS011;20618;0.000;0.000;2024-01-30T08:10:16;7.85;;;3.22;;
34353;SDS011;20618;0.000;0.000;2024-01-30T08:12:45;13.35;;;3.72;;
34353;SDS011;20618;0.000;0.000;2024-01-30T08:15:11;30.13;;;4.93;;
34353;SDS011;20618;0.000;0.000;2024-01-30T08:17:38;24.35;;;4.68;;
34353;SDS011;20618;0.000;0.000;2024-01-30T08:20:04;10.18;;;3.45;;
34353;SDS011;20618;0.000;0.000;2024-01-30T08:22:31;16.95;;;4.28;;
34353;SDS011;20618;0.000;0.000;2024-01-30T08:24:57;17.25;;;3.92;;
34353;SDS011;20618;0.000;0.000;2024-01-30T08:27:23;14.38;;;3.83;;
34353;SDS011;20618;0.000;0.000;2024-01-30T08:29:49;10.48;;;4.05;;
34353;SDS011;20618;0.000;0.000;2024-01-30T08:32:15;10.88;;;3.55;;
34353;SDS011;20618;0.000;0.000;2024-01-30T08:34:42;14.95;;;3.65;;
34353;SDS011;20618;0.000;0.000;2024-01-30T08:37:08;13.07;;;3.55;;
34353;SDS011;20618;0.000;0.000;2024-01-30T08:39:34;16.90;;;3.67;;
34353;SDS011;20618;0.000;0.000;2024-01-30T08:42:00;12.23;;;3.42;;
34353;SDS011;20618;0.000;0.000;2024-01-30T08:44:27;15.43;;;3.75;;
34353;SDS011;20618;0.000;0.000;2024-01-30T08:46:53;14.77;;;3.63;;
34353;SDS011;20618;0.000;0.000;2024-01-30T08:49:19;16.70;;;3.92;;
34353;SDS011;20618;0.000;0.000;2024-01-30T08:51:46;14.90;;;3.75;;
34353;SDS011;20618;0.000;0.000;2024-01-30T08:54:12;14.05;;;3.60;;
34353;SDS011;20618;0.000;0.000;2024-01-30T08:56:38;15.98;;;4.55;;
34353;SDS011;20618;0.000;0.000;2024-01-30T08:59:05;18.63;;;3.95;;
34353;SDS011;20618;0.000;0.000;2024-01-30T09:01:31;23.25;;;3.67;;
34353;SDS011;20618;0.000;0.000;2024-01-30T09:03:57;16.05;;;3.65;;
34353;SDS011;20618;0.000;0.000;2024-01-30T09:06:23;18.30;;;4.45;;
34353;SDS011;20618;0.000;0.000;2024-01-30T09:08:51;20.05;;;4.35;;
34353;SDS011;20618;0.000;0.000;2024-01-30T09:11:17;20.95;;;4.28;;
34353;SDS011;20618;0.000;0.000;2024-01-30T09:13:44;19.95;;;3.90;;
34353;SDS011;20618;0.000;0.000;2024-01-30T09:16:10;15.48;;;4.15;;
34353;SDS011;20618;0.000;0.000;2024-01-30T09:18:36;20.08;;;5.00;;
34353;SDS011;20618;0.000;0.000;2024-01-30T09:21:02;15.23;;;3.53;;
34353;SDS011;20618;0.000;0.000;2024-01-30T09:23:28;19.77;;;3.83;;
34353;SDS011;20618;0.000;0.000;2024-01-30T09:25:55;15.50;;;3.67;;
34353;SDS011;20618;0.000;0.000;2024-01-30T09:28:21;19.33;;;3.97;;
34353;SDS011;20618;0.000;0.000;2024-01-30T09:30:47;17.17;;;4.18;;
34353;SDS011;20618;0.000;0.000;2024-01-30T09:33:13;23.27;;;4.50;;
34353;SDS011;20618;0.000;0.000;2024-01-30T09:35:40;20.52;;;3.92;;
34353;SDS011;20618;0.000;0.000;2024-01-30T09:38:06;17.73;;;3.95;;
34353;SDS011;20618;0.000;0.000;2024-01-30T09:40:32;15.63;;;4.07;;
34353;SDS011;20618;0.000;0.000;2024-01-30T09:42:58;14.88;;;3.80;;
34353;SDS011;20618;0.000;0.000;2024-01-30T09:45:25;25.77;;;4.70;;
34353;SDS011;20618;0.000;0.000;2024-01-30T09:47:52;22.48;;;4.88;;
34353;SDS011;20618;0.000;0.000;2024-01-30T09:50:18;34.67;;;5.35;;
34353;SDS011;20618;0.000;0.000;2024-01-30T09:52:45;20.23;;;4.10;;
34353;SDS011;20618;0.000;0.000;2024-01-30T09:55:12;60.53;;;8.38;;
34353;SDS011;20618;0.000;0.000;2024-01-30T09:57:38;23.25;;;4.43;;
34353;SDS011;20618;0.000;0.000;2024-01-30T10:00:04;22.60;;;4.72;;
34353;SDS011;20618;0.000;0.000;2024-01-30T10:02:37;34.75;;;5.95;;
34353;SDS011;20618;0.000;0.000;2024-01-30T10:05:03;21.17;;;4.55;;
34353;SDS011;20618;0.000;0.000;2024-01-30T10:07:30;19.02;;;3.85;;
34353;SDS011;20618;0.000;0.000;2024-01-30T10:09:57;19.40;;;3.92;;
34353;SDS011;20618;0.000;0.000;2024-01-30T10:12:23;23.92;;;5.03;;
34353;SDS011;20618;0.000;0.000;2024-01-30T10:14:49;16.77;;;4.50;;
34353;SDS011;20618;0.000;0.000;2024-01-30T10:17:15;17.85;;;4.53;;
34353;SDS011;20618;0.000;0.000;2024-01-30T10:19:41;21.10;;;4.22;;
34353;SDS011;20618;0.000;0.000;2024-01-30T10:22:07;13.43;;;4.10;;
34353;SDS011;20618;0.000;0.000;2024-01-30T10:24:35;16.13;;;3.90;;
34353;SDS011;20618;0.000;0.000;2024-01-30T10:27:02;13.20;;;3.78;;
34353;SDS011;20618;0.000;0.000;2024-01-30T10:29:28;12.25;;;3.80;;
34353;SDS011;20618;0.000;0.000;2024-01-30T10:32:01;16.52;;;4.22;;
34353;SDS011;20618;0.000;0.000;2024-01-30T10:34:27;13.55;;;4.30;;
34353;SDS011;20618;0.000;0.000;2024-01-30T10:39:23;13.45;;;4.20;;
34353;SDS011;20618;0.000;0.000;2024-01-30T10:41:49;14.52;;;4.13;;
34353;SDS011;20618;0.000;0.000;2024-01-30T10:44:18;32.15;;;5.72;;
34353;SDS011;20618;0.000;0.000;2024-01-30T10:46:45;53.17;;;9.38;;
34353;SDS011;20618;0.000;0.000;2024-01-30T10:49:16;62.05;;;10.93;;
34353;SDS011;20618;0.000;0.000;2024-01-30T10:51:42;24.02;;;5.15;;
34353;SDS011;20618;0.000;0.000;2024-01-30T10:54:09;27.60;;;5.25;;
34353;SDS011;20618;0.000;0.000;2024-01-30T10:56:36;21.70;;;4.43;;
34353;SDS011;20618;0.000;0.000;2024-01-30T10:59:03;23.23;;;5.13;;
34353;SDS011;20618;0.000;0.000;2024-01-30T11:01:29;25.73;;;4.85;;
34353;SDS011;20618;0.000;0.000;2024-01-30T11:03:56;19.27;;;4.57;;
34353;SDS011;20618;0.000;0.000;2024-01-30T11:06:23;19.05;;;4.47;;
34353;SDS011;20618;0.000;0.000;2024-01-30T11:09:05;15.10;;;4.13;;
34353;SDS011;20618;0.000;0.000;2024-01-30T11:11:49;26.02;;;5.07;;
34353;SDS011;20618;0.000;0.000;2024-01-30T11:14:15;17.67;;;4.90;;
34353;SDS011;20618;0.000;0.000;2024-01-30T11:16:42;21.52;;;4.90;;
34353;SDS011;20618;0.000;0.000;2024-01-30T11:19:11;19.30;;;4.93;;
34353;SDS011;20618;0.000;0.000;2024-01-30T11:21:41;20.38;;;5.28;;
34353;SDS011;20618;0.000;0.000;2024-01-30T11:24:07;17.52;;;4.68;;
34353;SDS011;20618;0.000;0.000;2024-01-30T11:26:34;18.50;;;5.45;;
34353;SDS011;20618;0.000;0.000;2024-01-30T11:29:03;19.25;;;4.60;;
34353;SDS011;20618;0.000;0.000;2024-01-30T11:31:29;22.27;;;5.10;;
34353;SDS011;20618;0.000;0.000;2024-01-30T11:33:56;21.13;;;5.50;;
34353;SDS011;20618;0.000;0.000;2024-01-30T11:36:25;20.60;;;4.45;;
34353;SDS011;20618;0.000;0.000;2024-01-30T11:38:52;24.65;;;5.25;;
34353;SDS011;20618;0.000;0.000;2024-01-30T11:41:18;21.48;;;4.90;;
34353;SDS011;20618;0.000;0.000;2024-01-30T11:43:51;27.35;;;4.70;;
34353;SDS011;20618;0.000;0.000;2024-01-30T11:46:18;18.50;;;4.63;;
34353;SDS011;20618;0.000;0.000;2024-01-30T11:48:44;20.55;;;4.43;;
34353;SDS011;20618;0.000;0.000;2024-01-30T11:51:11;17.88;;;4.93;;
34353;SDS011;20618;0.000;0.000;2024-01-30T11:53:37;21.83;;;5.30;;
34353;SDS011;20618;0.000;0.000;2024-01-30T11:56:05;21.67;;;4.75;;
34353;SDS011;20618;0.000;0.000;2024-01-30T11:58:33;16.55;;;4.55;;
34353;SDS011;20618;0.000;0.000;2024-01-30T12:00:59;26.85;;;4.72;;
34353;SDS011;20618;0.000;0.000;2024-01-30T12:03:25;18.30;;;4.72;;
34353;SDS011;20618;0.000;0.000;2024-01-30T12:05:55;25.58;;;4.90;;
34353;SDS011;20618;0.000;0.000;2024-01-30T12:08:23;20.02;;;4.53;;
34353;SDS011;20618;0.000;0.000;2024-01-30T12:10:56;23.70;;;4.38;;
34353;SDS011;20618;0.000;0.000;2024-01-30T12:13:23;24.02;;;5.65;;
34353;SDS011;20618;0.000;0.000;2024-01-30T12:15:49;23.38;;;5.28;;
34353;SDS011;20618;0.000;0.000;2024-01-30T12:18:18;20.10;;;4.47;;
34353;SDS011;20618;0.000;0.000;2024-01-30T12:20:45;21.75;;;4.57;;
34353;SDS011;20618;0.000;0.000;2024-01-30T12:23:11;17.95;;;4.00;;
34353;SDS011;20618;0.000;0.000;2024-01-30T12:25:37;23.83;;;5.38;;
34353;SDS011;20618;0.000;0.000;2024-01-30T12:28:04;22.55;;;5.65;;
34353;SDS011;20618;0.000;0.000;2024-01-30T12:30:30;23.63;;;5.03;;
34353;SDS011;20618;0.000;0.000;2024-01-30T12:32:57;36.42;;;6.78;;
34353;SDS011;20618;0.000;0.000;2024-01-30T12:35:23;26.30;;;5.38;;
34353;SDS011;20618;0.000;0.000;2024-01-30T12:37:49;30.80;;;5.85;;
34353;SDS011;20618;0.000;0.000;2024-01-30T12:40:16;21.48;;;4.75;;
34353;SDS011;20618;0.000;0.000;2024-01-30T12:42:42;23.05;;;5.68;;
34353;SDS011;20618;0.000;0.000;2024-01-30T12:45:11;24.13;;;5.40;;
34353;SDS011;20618;0.000;0.000;2024-01-30T12:47:38;15.45;;;4.82;;
34353;SDS011;20618;0.000;0.000;2024-01-30T12:50:04;17.15;;;5.22;;
34353;SDS011;20618;0.000;0.000;2024-01-30T12:52:30;22.10;;;5.35;;
34353;SDS011;20618;0.000;0.000;2024-01-30T12:54:56;19.55;;;5.25;;
34353;SDS011;20618;0.000;0.000;2024-01-30T12:57:23;18.83;;;5.13;;
34353;SDS011;20618;0.000;0.000;2024-01-30T12:59:49;17.48;;;5.32;;
34353;SDS011;20618;0.000;0.000;2024-01-30T13:02:15;20.30;;;5.13;;
34353;SDS011;20618;0.000;0.000;2024-01-30T13:04:41;29.98;;;5.95;;
34353;SDS011;20618;0.000;0.000;2024-01-30T13:07:08;16.88;;;5.18;;
34353;SDS011;20618;0.000;0.000;2024-01-30T13:09:34;13.95;;;4.50;;
34353;SDS011;20618;0.000;0.000;2024-01-30T13:12:00;19.10;;;5.32;;
34353;SDS011;20618;0.000;0.000;2024-01-30T13:14:26;19.85;;;5.63;;
34353;SDS011;20618;0.000;0.000;2024-01-30T13:16:52;32.17;;;5.82;;
34353;SDS011;20618;0.000;0.000;2024-01-30T13:19:19;23.15;;;4.70;;
34353;SDS011;20618;0.000;0.000;2024-01-30T13:21:45;18.70;;;4.80;;
34353;SDS011;20618;0.000;0.000;2024-01-30T13:24:12;26.33;;;5.43;;
34353;SDS011;20618;0.000;0.000;2024-01-30T13:26:39;19.55;;;5.20;;
34353;SDS011;20618;0.000;0.000;2024-01-30T13:29:05;18.00;;;4.55;;
34353;SDS011;20618;0.000;0.000;2024-01-30T13:31:31;21.95;;;5.57;;
34353;SDS011;20618;0.000;0.000;2024-01-30T13:33:57;23.73;;;5.03;;
34353;SDS011;20618;0.000;0.000;2024-01-30T13:36:23;20.52;;;4.80;;
34353;SDS011;20618;0.000;0.000;2024-01-30T13:38:49;16.55;;;5.18;;
34353;SDS011;20618;0.000;0.000;2024-01-30T13:41:16;30.45;;;5.68;;
34353;SDS011;20618;0.000;0.000;2024-01-30T13:43:43;27.33;;;5.18;;
34353;SDS011;20618;0.000;0.000;2024-01-30T13:46:10;19.25;;;5.03;;
34353;SDS011;20618;0.000;0.000;2024-01-30T13:48:36;23.77;;;5.50;;
34353;SDS011;20618;0.000;0.000;2024-01-30T13:51:02;23.23;;;5.05;;
34353;SDS011;20618;0.000;0.000;2024-01-30T13:53:28;24.30;;;5.82;;
34353;SDS011;20618;0.000;0.000;2024-01-30T13:55:54;28.95;;;5.72;;
34353;SDS011;20618;0.000;0.000;2024-01-30T13:58:20;22.60;;;5.80;;
34353;SDS011;20618;0.000;0.000;2024-01-30T14:00:47;16.67;;;5.15;;
34353;SDS011;20618;0.000;0.000;2024-01-30T14:03:14;24.42;;;5.25;;
34353;SDS011;20618;0.000;0.000;2024-01-30T14:05:40;17.17;;;5.55;;
34353;SDS011;20618;0.000;0.000;2024-01-30T14:08:06;20.38;;;5.20;;
34353;SDS011;20618;0.000;0.000;2024-01-30T14:10:33;16.52;;;4.60;;
34353;SDS011;20618;0.000;0.000;2024-01-30T14:13:00;30.67;;;5.78;;
34353;SDS011;20618;0.000;0.000;2024-01-30T14:15:26;26.20;;;6.05;;
34353;SDS011;20618;0.000;0.000;2024-01-30T14:17:52;21.35;;;5.57;;
34353;SDS011;20618;0.000;0.000;2024-01-30T14:20:18;27.65;;;5.60;;
34353;SDS011;20618;0.000;0.000;2024-01-30T14:22:44;22.42;;;5.47;;
34353;SDS011;20618;0.000;0.000;2024-01-30T14:25:11;26.40;;;6.10;;
34353;SDS011;20618;0.000;0.000;2024-01-30T14:27:37;25.58;;;5.95;;
34353;SDS011;20618;0.000;0.000;2024-01-30T14:30:03;26.08;;;5.72;;
34353;SDS011;20618;0.000;0.000;2024-01-30T14:32:30;27.55;;;5.72;;
34353;SDS011;20618;0.000;0.000;2024-01-30T14:34:56;29.70;;;6.03;;
34353;SDS011;20618;0.000;0.000;2024-01-30T14:37:22;20.55;;;5.70;;
34353;SDS011;20618;0.000;0.000;2024-01-30T14:39:48;26.05;;;5.70;;
34353;SDS011;20618;0.000;0.000;2024-01-30T14:42:15;28.83;;;5.85;;
34353;SDS011;20618;0.000;0.000;2024-01-30T14:44:41;22.45;;;5.30;;
34353;SDS011;20618;0.000;0.000;2024-01-30T14:47:07;33.30;;;6.07;;
34353;SDS011;20618;0.000;0.000;2024-01-30T14:49:34;25.13;;;5.30;;
34353;SDS011;20618;0.000;0.000;2024-01-30T14:52:00;32.50;;;6.00;;